createdAt,value
2023-04-21T00:00:10.557Z,16.40
2023-04-21T00:02:41.534Z,15.80
2023-04-21T00:05:13.898Z,17.03
2023-04-21T00:07:42.866Z,16.90
2023-04-21T00:10:12.181Z,17.00
2023-04-21T00:12:41.395Z,16.30
2023-04-21T00:15:10.653Z,16.17
2023-04-21T00:17:40.927Z,17.10
2023-04-21T00:20:11.960Z,18.00
2023-04-21T00:22:40.244Z,17.60
2023-04-21T00:25:09.310Z,20.10
2023-04-21T00:27:38.196Z,21.90
2023-04-21T00:30:07.381Z,22.43
2023-04-21T00:32:38.615Z,24.73
2023-04-21T00:35:07.665Z,23.43
2023-04-21T00:37:37.900Z,24.57
2023-04-21T00:40:07.150Z,23.80
2023-04-21T00:42:35.993Z,24.67
2023-04-21T00:45:04.840Z,25.83
2023-04-21T00:47:33.536Z,25.50
2023-04-21T00:50:04.280Z,24.43
2023-04-21T00:52:32.764Z,25.50
2023-04-21T00:55:02.947Z,25.57
2023-04-21T00:57:33.582Z,27.23
2023-04-21T01:00:02.071Z,23.77
2023-04-21T01:02:30.578Z,26.00
2023-04-21T01:04:58.982Z,29.20
2023-04-21T01:07:27.920Z,29.40
2023-04-21T01:09:58.073Z,29.10
2023-04-21T01:12:28.107Z,29.53
2023-04-21T01:14:56.824Z,27.63
2023-04-21T01:17:25.732Z,27.97
2023-04-21T01:19:57.940Z,27.97
2023-04-21T01:22:27.877Z,26.77
2023-04-21T01:24:56.642Z,29.73
2023-04-21T01:27:26.958Z,26.83
2023-04-21T01:29:56.103Z,29.03
2023-04-21T01:32:29.033Z,25.80
2023-04-21T01:34:59.777Z,26.03
2023-04-21T01:37:33.023Z,26.80
2023-04-21T01:40:04.988Z,28.60
2023-04-21T01:42:36.101Z,24.10
2023-04-21T01:45:05.119Z,25.37
2023-04-21T01:47:33.806Z,26.03
2023-04-21T01:50:02.134Z,29.13
2023-04-21T01:52:32.047Z,24.80
2023-04-21T01:55:03.169Z,25.80
2023-04-21T01:57:32.050Z,25.20
2023-04-21T02:00:00.466Z,25.07
2023-04-21T02:02:29.560Z,23.37
2023-04-21T02:04:57.989Z,26.30
2023-04-21T02:07:26.767Z,26.80
2023-04-21T02:09:56.673Z,30.03
2023-04-21T02:12:25.195Z,29.87
2023-04-21T02:14:54.634Z,28.77
2023-04-21T02:17:23.941Z,29.47
2023-04-21T02:19:54.813Z,29.80
2023-04-21T02:22:29.827Z,30.37
2023-04-21T02:24:59.799Z,28.73
2023-04-21T02:27:31.369Z,32.87
2023-04-21T02:30:01.934Z,29.73
2023-04-21T02:32:31.019Z,29.93
2023-04-21T02:35:00.162Z,28.83
2023-04-21T02:37:32.496Z,27.87
2023-04-21T02:40:02.804Z,28.77
2023-04-21T02:42:34.772Z,28.47
2023-04-21T02:45:03.196Z,29.43
2023-04-21T02:47:32.310Z,29.60
2023-04-21T02:50:01.129Z,28.80
2023-04-21T02:52:30.156Z,27.97
2023-04-21T02:54:58.435Z,29.60
2023-04-21T02:57:28.272Z,28.10
2023-04-21T02:59:56.605Z,26.63
2023-04-21T03:02:25.148Z,28.20
2023-04-21T03:04:54.089Z,28.70
2023-04-21T03:07:23.044Z,28.20
2023-04-21T03:09:51.311Z,27.83
2023-04-21T03:12:19.632Z,26.83
2023-04-21T03:14:49.702Z,26.40
2023-04-21T03:17:21.096Z,26.27
2023-04-21T03:19:50.001Z,27.87
2023-04-21T03:22:18.322Z,25.23
2023-04-21T03:24:46.600Z,27.10
2023-04-21T03:27:14.967Z,25.87
2023-04-21T03:29:43.684Z,23.20
2023-04-21T03:32:13.664Z,23.70
2023-04-21T03:34:42.997Z,23.63
2023-04-21T03:37:11.694Z,25.70
2023-04-21T03:39:40.076Z,24.10
2023-04-21T03:42:08.994Z,27.43
2023-04-21T03:44:37.326Z,27.30
2023-04-21T03:47:05.986Z,25.47
2023-04-21T03:49:36.906Z,25.27
2023-04-21T03:52:05.994Z,23.47
2023-04-21T03:54:34.267Z,25.63
2023-04-21T03:57:03.205Z,23.50
2023-04-21T03:59:32.537Z,23.80
2023-04-21T04:02:01.615Z,25.20
2023-04-21T04:04:30.696Z,25.00
2023-04-21T04:07:01.375Z,26.50
2023-04-21T04:09:29.950Z,23.83
2023-04-21T04:11:58.626Z,26.70
2023-04-21T04:14:27.019Z,24.73
2023-04-21T04:16:56.442Z,23.37
2023-04-21T04:19:24.803Z,24.43
2023-04-21T04:21:53.117Z,25.03
2023-04-21T04:24:22.887Z,24.80
2023-04-21T04:26:51.441Z,23.47
2023-04-21T04:29:20.100Z,24.83
2023-04-21T04:31:49.201Z,24.50
2023-04-21T04:34:17.957Z,22.23
2023-04-21T04:36:46.855Z,21.87
2023-04-21T04:39:18.408Z,21.57
2023-04-21T04:41:48.727Z,21.47
2023-04-21T04:44:18.071Z,20.83
2023-04-21T04:46:47.070Z,20.80
2023-04-21T04:49:15.546Z,21.77
2023-04-21T04:51:43.775Z,22.43
2023-04-21T04:54:12.992Z,22.20
2023-04-21T04:56:41.730Z,21.53
2023-04-21T04:59:11.804Z,20.17
2023-04-21T05:01:41.830Z,20.47
2023-04-21T05:04:10.769Z,22.83
2023-04-21T05:06:39.666Z,21.70
2023-04-21T05:09:10.334Z,21.27
2023-04-21T05:11:38.627Z,20.17
2023-04-21T05:14:07.124Z,25.10
2023-04-21T05:16:38.533Z,25.10
2023-04-21T05:19:07.931Z,22.80
2023-04-21T05:21:38.076Z,25.77
2023-04-21T05:24:07.437Z,24.60
2023-04-21T05:26:35.816Z,27.73
2023-04-21T05:29:04.782Z,25.53
2023-04-21T05:31:35.009Z,24.67
2023-04-21T05:34:05.078Z,26.10
2023-04-21T05:36:33.435Z,26.97
2023-04-21T05:39:01.700Z,24.97
2023-04-21T05:41:30.221Z,24.87
2023-04-21T05:43:59.191Z,24.93
2023-04-21T05:46:31.536Z,25.53
2023-04-21T05:49:00.154Z,24.53
2023-04-21T05:51:29.988Z,22.83
2023-04-21T05:53:58.302Z,22.60
2023-04-21T05:56:27.464Z,21.20
2023-04-21T05:58:57.202Z,22.13
2023-04-21T06:01:25.701Z,22.50
2023-04-21T06:03:54.161Z,21.27
2023-04-21T06:06:24.013Z,24.23
2023-04-21T06:08:54.056Z,17.63
2023-04-21T06:11:25.005Z,22.30
2023-04-21T06:13:58.249Z,20.93
2023-04-21T06:16:27.177Z,21.60
2023-04-21T06:18:55.930Z,21.20
2023-04-21T06:21:25.447Z,20.07
2023-04-21T06:23:55.343Z,21.83
2023-04-21T06:26:25.202Z,21.60
2023-04-21T06:28:53.532Z,23.07
2023-04-21T06:31:21.954Z,20.00
2023-04-21T06:33:50.429Z,22.97
2023-04-21T06:36:22.960Z,22.60
2023-04-21T06:38:51.371Z,20.97
2023-04-21T06:41:22.920Z,21.43
2023-04-21T06:43:52.790Z,20.20
2023-04-21T06:46:24.410Z,19.63
2023-04-21T06:48:52.827Z,18.27
2023-04-21T06:51:21.279Z,18.43
2023-04-21T06:53:50.102Z,20.00
2023-04-21T06:56:19.990Z,17.90
2023-04-21T06:58:49.743Z,17.33
2023-04-21T07:01:18.398Z,17.73
2023-04-21T07:03:47.420Z,17.47
2023-04-21T07:06:15.793Z,16.40
2023-04-21T07:08:44.128Z,16.50
2023-04-21T07:11:12.430Z,18.40
2023-04-21T07:13:42.489Z,17.00
2023-04-21T07:16:11.349Z,16.13
2023-04-21T07:18:41.956Z,15.37
2023-04-21T07:21:10.914Z,15.73
2023-04-21T07:23:39.324Z,15.37
2023-04-21T07:26:07.791Z,14.40
2023-04-21T07:28:36.518Z,14.10
2023-04-21T07:31:07.044Z,14.07
2023-04-21T07:33:35.776Z,13.83
2023-04-21T07:36:05.483Z,14.00
2023-04-21T07:38:34.832Z,14.93
2023-04-21T07:41:03.701Z,14.40
2023-04-21T07:43:32.406Z,14.33
2023-04-21T07:46:00.929Z,12.90
2023-04-21T07:48:30.844Z,13.03
2023-04-21T07:51:00.621Z,13.33
2023-04-21T07:53:29.081Z,12.83
2023-04-21T07:55:57.656Z,13.17
2023-04-21T07:58:26.053Z,13.87
2023-04-21T08:00:54.616Z,12.17
2023-04-21T08:03:24.443Z,14.07
2023-04-21T08:05:54.642Z,15.97
2023-04-21T08:08:23.528Z,15.10
2023-04-21T08:10:51.884Z,13.57
2023-04-21T08:13:21.061Z,13.63
2023-04-21T08:15:49.847Z,13.47
2023-04-21T08:18:22.089Z,12.87
2023-04-21T08:20:52.563Z,10.90
2023-04-21T08:23:22.782Z,10.13
2023-04-21T08:25:51.104Z,9.83
2023-04-21T08:28:19.450Z,10.50
2023-04-21T08:30:49.044Z,9.73
2023-04-21T08:33:17.382Z,8.97
2023-04-21T08:35:59.291Z,9.57
2023-04-21T08:38:35.620Z,9.60
2023-04-21T08:41:06.039Z,10.23
2023-04-21T08:43:34.778Z,9.00
2023-04-21T08:46:07.235Z,8.30
2023-04-21T08:48:37.756Z,8.57
2023-04-21T08:51:09.748Z,8.73
2023-04-21T08:53:42.795Z,10.63
2023-04-21T08:56:12.273Z,9.70
2023-04-21T08:58:42.136Z,10.87
2023-04-21T09:01:11.101Z,10.30
2023-04-21T09:03:40.137Z,9.90
2023-04-21T09:06:11.156Z,7.57
2023-04-21T09:08:45.053Z,6.37
2023-04-21T09:11:16.027Z,6.10
2023-04-21T09:13:47.453Z,6.07
2023-04-21T09:16:22.419Z,6.03
2023-04-21T09:18:51.987Z,5.37
2023-04-21T09:21:23.201Z,6.20
2023-04-21T09:23:55.582Z,6.30
2023-04-21T09:26:24.733Z,6.53
2023-04-21T09:28:55.268Z,6.47
2023-04-21T09:31:25.676Z,5.33
2023-04-21T09:33:59.546Z,6.30
2023-04-21T09:36:31.995Z,6.57
2023-04-21T09:41:36.586Z,4.90
2023-04-21T09:44:05.263Z,6.20
2023-04-21T09:46:37.087Z,6.63
2023-04-21T09:49:06.239Z,5.60
2023-04-21T09:56:52.498Z,5.90
2023-04-21T09:59:27.612Z,5.90
2023-04-21T10:01:58.961Z,6.17
2023-04-21T10:04:29.145Z,6.23
2023-04-21T10:06:58.165Z,5.40
2023-04-21T10:09:34.511Z,5.67
2023-04-21T10:12:06.444Z,5.30
2023-04-21T10:14:38.224Z,6.50
2023-04-21T10:17:11.164Z,5.20
2023-04-21T10:19:49.387Z,5.13
2023-04-21T10:22:29.156Z,4.83
2023-04-21T10:25:00.058Z,5.50
2023-04-21T10:27:36.537Z,4.60
2023-04-21T10:30:21.058Z,4.10
2023-04-21T10:32:50.027Z,4.00
2023-04-21T10:35:24.043Z,4.80
2023-04-21T10:37:53.119Z,4.50
2023-04-21T10:43:43.382Z,4.27
2023-04-21T10:46:33.008Z,5.37
2023-04-21T10:49:07.084Z,6.07
2023-04-21T10:52:04.432Z,6.17
2023-04-21T10:54:41.771Z,6.30
2023-04-21T10:57:13.796Z,5.97
2023-04-21T10:59:43.489Z,6.30
2023-04-21T11:02:13.693Z,6.50
2023-04-21T11:04:46.220Z,7.00
2023-04-21T11:07:16.982Z,5.80
2023-04-21T11:09:48.702Z,7.47
2023-04-21T11:12:19.836Z,6.33
2023-04-21T11:14:49.654Z,6.63
2023-04-21T11:17:20.278Z,7.27
2023-04-21T11:19:54.229Z,6.77
2023-04-21T11:22:25.153Z,6.80
2023-04-21T11:24:57.097Z,7.27
2023-04-21T11:27:30.878Z,8.03
2023-04-21T11:29:59.440Z,8.23
2023-04-21T11:32:29.286Z,6.73
2023-04-21T11:35:00.977Z,6.93
2023-04-21T11:37:30.069Z,8.43
2023-04-21T11:39:59.877Z,6.53
2023-04-21T11:42:31.970Z,6.87
2023-04-21T11:45:00.672Z,6.83
2023-04-21T11:47:30.202Z,6.17
2023-04-21T11:50:01.946Z,7.03
2023-04-21T11:52:33.286Z,6.13
2023-04-21T11:55:03.472Z,6.03
2023-04-21T11:57:34.256Z,7.50
2023-04-21T12:00:06.540Z,7.07
2023-04-21T12:02:35.751Z,7.13
2023-04-21T12:05:06.234Z,6.67
2023-04-21T12:07:37.586Z,6.63
2023-04-21T12:10:11.778Z,7.40
2023-04-21T12:12:43.064Z,7.27
2023-04-21T12:15:20.383Z,9.17
2023-04-21T12:17:51.722Z,7.63
2023-04-21T12:20:22.058Z,8.57
2023-04-21T12:22:52.507Z,7.87
2023-04-21T12:25:21.379Z,9.43
2023-04-21T12:27:52.100Z,9.30
2023-04-21T12:30:21.600Z,8.97
2023-04-21T12:32:52.095Z,10.10
2023-04-21T12:35:20.924Z,9.33
2023-04-21T12:37:50.567Z,9.57
2023-04-21T12:40:20.200Z,10.10
2023-04-21T12:42:49.096Z,9.40
2023-04-21T12:45:22.248Z,10.63
2023-04-21T12:47:50.956Z,9.90
2023-04-21T12:50:19.837Z,9.30
2023-04-21T12:52:48.923Z,10.03
2023-04-21T12:55:24.194Z,10.67
2023-04-21T12:57:54.422Z,9.97
2023-04-21T13:00:37.373Z,10.00
2023-04-21T13:03:16.319Z,10.93
2023-04-21T13:05:46.027Z,11.20
2023-04-21T13:08:15.771Z,11.40
2023-04-21T13:10:46.032Z,10.03
2023-04-21T13:13:14.950Z,9.87
2023-04-21T13:15:46.503Z,10.37
2023-04-21T13:18:15.722Z,9.53
2023-04-21T13:21:02.993Z,9.83
2023-04-21T13:23:37.519Z,8.83
2023-04-21T13:26:07.030Z,10.60
2023-04-21T13:28:40.002Z,9.30
2023-04-21T13:31:10.133Z,10.57
2023-04-21T13:33:39.908Z,9.43
2023-04-21T13:36:11.866Z,8.70
2023-04-21T13:38:41.455Z,8.93
2023-04-21T13:41:10.082Z,9.67
2023-04-21T13:43:44.746Z,10.63
2023-04-21T13:46:15.275Z,10.13
2023-04-21T13:48:46.464Z,11.73
2023-04-21T13:51:15.036Z,8.37
2023-04-21T13:53:43.537Z,9.40
2023-04-21T13:56:14.058Z,9.03
2023-04-21T13:58:42.748Z,8.77
2023-04-21T14:01:11.343Z,8.90
2023-04-21T14:03:42.108Z,8.40
2023-04-21T14:06:10.679Z,8.60
2023-04-21T14:08:39.364Z,9.00
2023-04-21T14:11:07.703Z,7.40
2023-04-21T14:13:42.516Z,9.23
2023-04-21T14:16:14.008Z,7.60
2023-04-21T14:18:45.298Z,8.20
2023-04-21T14:21:14.688Z,6.90
2023-04-21T14:23:43.144Z,7.83
2023-04-21T14:26:11.914Z,7.10
2023-04-21T14:28:40.648Z,6.93
2023-04-21T14:31:09.857Z,6.90
2023-04-21T14:33:38.442Z,5.53
2023-04-21T14:36:08.529Z,5.90
2023-04-21T14:38:40.061Z,6.03
2023-04-21T14:41:08.382Z,6.20
2023-04-21T14:43:36.786Z,7.07
2023-04-21T14:46:05.827Z,7.20
2023-04-21T14:48:34.444Z,5.60
2023-04-21T14:51:04.254Z,6.10
2023-04-21T14:53:34.036Z,6.40
2023-04-21T14:56:02.413Z,6.27
2023-04-21T14:58:30.765Z,6.10
2023-04-21T15:00:59.350Z,6.37
2023-04-21T15:03:28.055Z,6.93
2023-04-21T15:05:56.539Z,5.50
2023-04-21T15:08:25.016Z,6.23
2023-04-21T15:11:02.828Z,5.60
2023-04-21T15:13:31.393Z,6.63
2023-04-21T15:15:59.808Z,5.70
2023-04-21T15:18:28.112Z,6.40
2023-04-21T15:20:57.408Z,6.37
2023-04-21T15:23:26.350Z,8.60
2023-04-21T15:25:54.706Z,5.53
2023-04-21T15:28:24.620Z,4.90
2023-04-21T15:30:53.803Z,4.50
2023-04-21T15:33:22.680Z,5.17
2023-04-21T15:35:51.513Z,6.47
2023-04-21T15:38:21.297Z,4.20
2023-04-21T15:41:00.654Z,3.50
2023-04-21T15:43:31.739Z,4.63
2023-04-21T15:46:00.215Z,3.83
2023-04-21T15:48:28.706Z,1.77
2023-04-21T15:50:58.027Z,1.40
2023-04-21T15:53:27.612Z,1.87
2023-04-21T15:55:56.102Z,1.30
2023-04-21T15:58:24.367Z,1.30
2023-04-21T16:00:54.174Z,1.43
2023-04-21T16:03:23.249Z,1.30
2023-04-21T16:05:56.128Z,2.43
2023-04-21T16:08:28.121Z,1.40
2023-04-21T16:10:57.342Z,4.57
2023-04-21T16:13:25.678Z,2.87
2023-04-21T16:15:55.432Z,2.53
2023-04-21T16:18:24.859Z,2.83
2023-04-21T16:20:53.777Z,2.10
2023-04-21T16:23:22.331Z,1.50
2023-04-21T16:25:51.440Z,2.57
2023-04-21T16:28:21.902Z,2.10
2023-04-21T16:30:50.540Z,1.27
2023-04-21T16:33:20.817Z,1.40
2023-04-21T16:35:49.293Z,2.73
2023-04-21T16:38:17.721Z,1.30
2023-04-21T16:40:46.333Z,3.03
2023-04-21T16:43:14.690Z,1.83
2023-04-21T16:45:48.398Z,3.13
2023-04-21T16:48:16.901Z,2.23
2023-04-21T16:50:46.827Z,2.80
2023-04-21T16:53:15.335Z,5.47
2023-04-21T16:55:45.724Z,5.60
2023-04-21T16:58:14.123Z,4.73
2023-04-21T17:00:42.496Z,5.37
2023-04-21T17:03:11.395Z,4.80
2023-04-21T17:05:40.115Z,4.83
2023-04-21T17:08:10.431Z,3.57
2023-04-21T17:10:38.844Z,2.53
2023-04-21T17:13:07.887Z,1.63
2023-04-21T17:15:36.266Z,2.80
2023-04-21T17:18:05.107Z,3.87
2023-04-21T17:20:34.986Z,4.10
2023-04-21T17:23:03.505Z,2.73
2023-04-21T17:25:33.855Z,2.20
2023-04-21T17:28:02.256Z,3.40
2023-04-21T17:30:31.005Z,1.70
2023-04-21T17:33:12.644Z,1.97
2023-04-21T17:36:02.132Z,2.13
2023-04-21T17:38:32.183Z,1.67
2023-04-21T17:41:03.065Z,1.73
2023-04-21T17:43:31.467Z,1.67
2023-04-21T17:46:00.158Z,1.50
2023-04-21T17:48:28.692Z,2.90
2023-04-21T17:50:57.065Z,1.93
2023-04-21T17:53:25.578Z,2.30
2023-04-21T17:55:53.953Z,1.27
2023-04-21T17:58:23.760Z,2.13
2023-04-21T18:00:54.728Z,2.40
2023-04-21T18:03:23.667Z,2.20
2023-04-21T18:05:52.557Z,1.97
2023-04-21T18:08:21.782Z,2.10
2023-04-21T18:10:50.243Z,2.03
2023-04-21T18:13:18.751Z,2.27
2023-04-21T18:15:48.633Z,1.97
2023-04-21T18:18:17.170Z,2.77
2023-04-21T18:20:45.838Z,3.93
2023-04-21T18:23:14.957Z,3.37
2023-04-21T18:25:43.458Z,2.47
2023-04-21T18:28:13.016Z,3.90
2023-04-21T18:30:42.875Z,2.43
2023-04-21T18:33:12.922Z,2.50
2023-04-21T18:35:42.668Z,2.27
2023-04-21T18:38:11.955Z,2.47
2023-04-21T18:40:41.174Z,1.80
2023-04-21T18:43:11.112Z,1.97
2023-04-21T18:45:40.115Z,2.43
2023-04-21T18:48:08.929Z,2.17
2023-04-21T18:50:40.385Z,2.67
2023-04-21T18:53:09.698Z,1.93
2023-04-21T18:55:38.532Z,1.50
2023-04-21T18:58:07.183Z,3.10
2023-04-21T19:00:39.046Z,2.73
2023-04-21T19:03:08.272Z,2.20
2023-04-21T19:05:40.530Z,2.13
2023-04-21T19:08:10.228Z,2.93
2023-04-21T19:10:39.389Z,3.47
2023-04-21T19:13:08.686Z,2.67
2023-04-21T19:15:37.186Z,2.57
2023-04-21T19:18:06.692Z,2.73
2023-04-21T19:20:37.528Z,4.63
2023-04-21T19:23:07.333Z,2.10
2023-04-21T19:25:36.912Z,4.13
2023-04-21T19:28:06.507Z,2.43
2023-04-21T19:30:34.908Z,2.13
2023-04-21T19:33:05.251Z,3.13
2023-04-21T19:35:33.985Z,2.40
2023-04-21T19:38:02.388Z,3.80
2023-04-21T19:40:32.168Z,1.93
2023-04-21T19:43:04.602Z,3.40
2023-04-21T19:45:34.076Z,1.90
2023-04-21T19:48:02.452Z,1.90
2023-04-21T19:50:31.265Z,2.40
2023-04-21T19:52:59.626Z,1.93
2023-04-21T19:55:28.056Z,4.50
2023-04-21T19:57:58.655Z,2.00
2023-04-21T20:00:27.550Z,2.00
2023-04-21T20:02:56.223Z,6.00
2023-04-21T20:05:24.725Z,2.40
2023-04-21T20:07:53.374Z,2.83
2023-04-21T20:10:22.147Z,1.70
2023-04-21T20:12:50.511Z,1.90
2023-04-21T20:15:21.325Z,2.23
2023-04-21T20:17:50.040Z,1.50
2023-04-21T20:20:18.572Z,1.40
2023-04-21T20:22:56.572Z,2.77
2023-04-21T20:25:24.974Z,1.67
2023-04-21T20:27:53.472Z,2.23
2023-04-21T20:30:23.396Z,2.50
2023-04-21T20:32:51.801Z,2.70
2023-04-21T20:35:20.213Z,1.90
2023-04-21T20:37:48.592Z,1.57
2023-04-21T20:40:18.712Z,1.90
2023-04-21T20:42:47.289Z,2.77
2023-04-21T20:45:18.483Z,1.77
2023-04-21T20:47:48.555Z,2.90
2023-04-21T20:50:16.987Z,2.10
2023-04-21T20:52:46.312Z,2.00
2023-04-21T20:55:14.710Z,1.73
2023-04-21T20:57:43.355Z,3.97
2023-04-21T21:00:12.367Z,2.43
2023-04-21T21:02:41.209Z,3.07
2023-04-21T21:05:11.527Z,1.30
2023-04-21T21:07:39.948Z,2.50
2023-04-21T21:10:11.352Z,2.50
2023-04-21T21:12:39.733Z,2.10
2023-04-21T21:15:09.643Z,2.73
2023-04-21T21:17:38.043Z,1.73
2023-04-21T21:20:08.068Z,1.50
2023-04-21T21:22:37.986Z,3.10
2023-04-21T21:25:07.099Z,2.60
2023-04-21T21:27:35.479Z,1.83
2023-04-21T21:30:04.163Z,1.87
2023-04-21T21:32:32.654Z,2.00
2023-04-21T21:35:03.062Z,2.10
2023-04-21T21:37:31.538Z,2.03
2023-04-21T21:40:01.349Z,2.60
2023-04-21T21:42:31.449Z,2.77
2023-04-21T21:44:59.969Z,2.60
2023-04-21T21:47:28.793Z,2.30
2023-04-21T21:49:58.956Z,2.00
2023-04-21T21:52:28.650Z,1.50
2023-04-21T21:54:58.386Z,3.20
2023-04-21T21:57:28.418Z,2.17
2023-04-21T22:00:00.476Z,3.47
2023-04-21T22:02:30.038Z,2.00
2023-04-21T22:04:59.740Z,1.83
2023-04-21T22:07:29.415Z,1.70
2023-04-21T22:09:59.911Z,3.17
2023-04-21T22:12:33.948Z,1.97
2023-04-21T22:15:02.700Z,1.60
2023-04-21T22:17:34.730Z,1.67
2023-04-21T22:20:08.366Z,1.90
2023-04-21T22:22:37.108Z,2.23
2023-04-21T22:25:06.590Z,2.33
2023-04-21T22:27:38.988Z,3.50
2023-04-21T22:30:09.111Z,2.87
2023-04-21T22:32:37.944Z,2.27
2023-04-21T22:35:07.451Z,3.00
2023-04-21T22:37:35.990Z,2.47
2023-04-21T22:40:05.091Z,3.17
2023-04-21T22:42:33.689Z,2.23
2023-04-21T22:45:05.231Z,3.33
2023-04-21T22:47:34.242Z,4.60
2023-04-21T22:50:04.486Z,2.37
2023-04-21T22:52:33.201Z,2.33
2023-04-21T22:55:01.909Z,5.33
2023-04-21T22:57:30.534Z,2.57
2023-04-21T23:00:08.106Z,2.27
2023-04-21T23:02:37.242Z,2.40
2023-04-21T23:05:06.796Z,2.40
2023-04-21T23:07:36.739Z,2.73
2023-04-21T23:10:05.999Z,2.40
2023-04-21T23:12:34.603Z,2.87
2023-04-21T23:15:03.206Z,2.63
2023-04-21T23:17:33.456Z,3.03
2023-04-21T23:20:02.701Z,3.40
2023-04-21T23:22:31.155Z,2.73
2023-04-21T23:25:00.168Z,3.00
2023-04-21T23:27:28.740Z,3.10
2023-04-21T23:29:57.199Z,2.70
2023-04-21T23:32:25.808Z,2.40
2023-04-21T23:34:55.773Z,3.37
2023-04-21T23:37:24.268Z,4.07
2023-04-21T23:39:52.975Z,2.70
2023-04-21T23:42:21.640Z,2.97
2023-04-21T23:44:50.406Z,3.50
2023-04-21T23:47:19.216Z,3.00
2023-04-21T23:49:47.725Z,2.57
2023-04-21T23:52:17.775Z,2.40
2023-04-21T23:54:47.394Z,2.33
2023-04-21T23:57:16.084Z,2.50
2023-04-21T23:59:44.896Z,4.60
